sensor_id;sensor_type;location;lat;lon;timestamp;temperature;humidity
70593;DHT22;58294;42.988;20.338;2023-05-10T00:00:14;358.70;2329.60
70593;DHT22;58294;42.988;20.338;2023-05-10T00:02:39;358.70;2329.60
70593;DHT22;58294;42.988;20.338;2023-05-10T00:05:06;358.70;2329.60
70593;DHT22;58294;42.988;20.338;2023-05-10T00:07:32;358.70;2329.60
70593;DHT22;58294;42.988;20.338;2023-05-10T00:09:58;358.70;2329.60
70593;DHT22;58294;42.988;20.338;2023-05-10T00:12:24;358.60;2329.60
70593;DHT22;58294;42.988;20.338;2023-05-10T00:14:49;358.60;2329.60
70593;DHT22;58294;42.988;20.338;2023-05-10T00:17:15;358.60;2329.60
70593;DHT22;58294;42.988;20.338;2023-05-10T00:19:41;358.50;2329.60
70593;DHT22;58294;42.988;20.338;2023-05-10T00:22:07;358.50;2329.60
70593;DHT22;58294;42.988;20.338;2023-05-10T00:24:32;358.50;2329.60
70593;DHT22;58294;42.988;20.338;2023-05-10T00:26:58;358.50;2329.60
70593;DHT22;58294;42.988;20.338;2023-05-10T00:29:24;358.60;2329.60
70593;DHT22;58294;42.988;20.338;2023-05-10T00:31:50;358.60;2329.60
70593;DHT22;58294;42.988;20.338;2023-05-10T00:34:15;358.60;2329.60
70593;DHT22;58294;42.988;20.338;2023-05-10T00:36:41;358.60;2329.60
70593;DHT22;58294;42.988;20.338;2023-05-10T00:39:07;358.60;2329.60
70593;DHT22;58294;42.988;20.338;2023-05-10T00:41:33;358.60;2329.60
70593;DHT22;58294;42.988;20.338;2023-05-10T00:43:59;358.60;2329.60
70593;DHT22;58294;42.988;20.338;2023-05-10T00:46:25;358.60;2329.60
70593;DHT22;58294;42.988;20.338;2023-05-10T00:48:51;358.60;2329.60
70593;DHT22;58294;42.988;20.338;2023-05-10T00:51:18;358.60;2329.60
70593;DHT22;58294;42.988;20.338;2023-05-10T00:53:45;358.60;2329.60
70593;DHT22;58294;42.988;20.338;2023-05-10T00:56:12;358.60;2329.60
70593;DHT22;58294;42.988;20.338;2023-05-10T00:58:39;358.60;2329.60
70593;DHT22;58294;42.988;20.338;2023-05-10T01:01:06;358.60;2329.60
70593;DHT22;58294;42.988;20.338;2023-05-10T01:03:32;358.60;2329.60
70593;DHT22;58294;42.988;20.338;2023-05-10T01:05:58;358.70;2329.60
70593;DHT22;58294;42.988;20.338;2023-05-10T01:08:24;358.70;2329.60
70593;DHT22;58294;42.988;20.338;2023-05-10T01:10:51;358.70;2329.60
70593;DHT22;58294;42.988;20.338;2023-05-10T01:15:58;358.70;2329.60
70593;DHT22;58294;42.988;20.338;2023-05-10T01:18:25;358.70;2329.60
70593;DHT22;58294;42.988;20.338;2023-05-10T01:21:23;358.80;2329.60
70593;DHT22;58294;42.988;20.338;2023-05-10T01:32:21;358.70;2329.60
70593;DHT22;58294;42.988;20.338;2023-05-10T01:35:17;358.70;2329.60
70593;DHT22;58294;42.988;20.338;2023-05-10T01:37:47;358.70;2329.60
70593;DHT22;58294;42.988;20.338;2023-05-10T01:40:47;358.70;2329.60
70593;DHT22;58294;42.988;20.338;2023-05-10T01:43:22;358.70;2329.60
70593;DHT22;58294;42.988;20.338;2023-05-10T01:45:53;358.70;2329.60
70593;DHT22;58294;42.988;20.338;2023-05-10T01:48:20;358.70;2329.60
70593;DHT22;58294;42.988;20.338;2023-05-10T01:50:47;358.70;2329.60
70593;DHT22;58294;42.988;20.338;2023-05-10T01:53:18;358.70;2329.60
70593;DHT22;58294;42.988;20.338;2023-05-10T01:55:50;358.70;2329.60
70593;DHT22;58294;42.988;20.338;2023-05-10T01:58:23;358.60;2329.60
70593;DHT22;58294;42.988;20.338;2023-05-10T02:00:50;358.60;2329.60
70593;DHT22;58294;42.988;20.338;2023-05-10T02:03:20;358.60;2329.60
70593;DHT22;58294;42.988;20.338;2023-05-10T02:05:48;358.60;2329.60
70593;DHT22;58294;42.988;20.338;2023-05-10T02:08:15;358.60;2329.60
70593;DHT22;58294;42.988;20.338;2023-05-10T02:10:44;358.60;2329.60
70593;DHT22;58294;42.988;20.338;2023-05-10T02:13:11;358.60;2329.60
70593;DHT22;58294;42.988;20.338;2023-05-10T02:15:38;358.60;2329.60
70593;DHT22;58294;42.988;20.338;2023-05-10T02:18:06;358.60;2329.60
70593;DHT22;58294;42.988;20.338;2023-05-10T02:20:33;358.60;2329.60
70593;DHT22;58294;42.988;20.338;2023-05-10T02:23:01;358.60;2329.60
70593;DHT22;58294;42.988;20.338;2023-05-10T02:25:28;358.60;2329.60
70593;DHT22;58294;42.988;20.338;2023-05-10T02:27:56;358.50;2329.60
70593;DHT22;58294;42.988;20.338;2023-05-10T02:30:23;358.50;2329.60
70593;DHT22;58294;42.988;20.338;2023-05-10T02:32:51;358.50;2329.60
70593;DHT22;58294;42.988;20.338;2023-05-10T02:35:17;358.50;2329.60
70593;DHT22;58294;42.988;20.338;2023-05-10T02:37:45;358.50;2329.60
70593;DHT22;58294;42.988;20.338;2023-05-10T02:40:13;358.50;2329.60
70593;DHT22;58294;42.988;20.338;2023-05-10T02:42:42;358.50;2329.60
70593;DHT22;58294;42.988;20.338;2023-05-10T02:45:13;358.50;2329.60
70593;DHT22;58294;42.988;20.338;2023-05-10T02:47:40;358.50;2329.60
70593;DHT22;58294;42.988;20.338;2023-05-10T02:50:07;358.40;2329.60
70593;DHT22;58294;42.988;20.338;2023-05-10T02:52:51;358.40;2329.60
70593;DHT22;58294;42.988;20.338;2023-05-10T02:55:21;358.40;2329.60
70593;DHT22;58294;42.988;20.338;2023-05-10T02:57:59;358.40;2329.60
70593;DHT22;58294;42.988;20.338;2023-05-10T03:00:25;358.40;2329.60
70593;DHT22;58294;42.988;20.338;2023-05-10T03:02:52;358.40;2329.60
70593;DHT22;58294;42.988;20.338;2023-05-10T03:05:18;358.40;2329.60
70593;DHT22;58294;42.988;20.338;2023-05-10T03:07:45;333.70;2329.60
70593;DHT22;58294;42.988;20.338;2023-05-10T03:10:12;333.70;2329.60
70593;DHT22;58294;42.988;20.338;2023-05-10T03:15:30;358.40;2329.60
70593;DHT22;58294;42.988;20.338;2023-05-10T03:20:51;358.40;2329.60
70593;DHT22;58294;42.988;20.338;2023-05-10T03:23:36;358.40;2329.60
70593;DHT22;58294;42.988;20.338;2023-05-10T03:26:06;358.40;2329.60
70593;DHT22;58294;42.988;20.338;2023-05-10T03:28:34;358.40;2329.60
70593;DHT22;58294;42.988;20.338;2023-05-10T03:31:01;358.40;2329.60
70593;DHT22;58294;42.988;20.338;2023-05-10T03:33:28;358.40;2329.60
70593;DHT22;58294;42.988;20.338;2023-05-10T03:35:54;358.50;2329.60
70593;DHT22;58294;42.988;20.338;2023-05-10T03:38:20;358.50;2329.60
70593;DHT22;58294;42.988;20.338;2023-05-10T03:40:45;358.50;2329.60
70593;DHT22;58294;42.988;20.338;2023-05-10T03:43:11;358.50;2329.60
70593;DHT22;58294;42.988;20.338;2023-05-10T03:45:37;358.50;2329.60
70593;DHT22;58294;42.988;20.338;2023-05-10T03:48:03;358.50;2329.60
70593;DHT22;58294;42.988;20.338;2023-05-10T03:50:29;358.50;2329.60
70593;DHT22;58294;42.988;20.338;2023-05-10T03:52:54;358.50;2329.60
70593;DHT22;58294;42.988;20.338;2023-05-10T03:55:20;358.50;2329.60
70593;DHT22;58294;42.988;20.338;2023-05-10T03:57:46;358.50;2329.60
70593;DHT22;58294;42.988;20.338;2023-05-10T04:00:15;358.50;2329.60
70593;DHT22;58294;42.988;20.338;2023-05-10T04:02:41;358.50;2329.60
70593;DHT22;58294;42.988;20.338;2023-05-10T04:05:07;358.50;2329.60
70593;DHT22;58294;42.988;20.338;2023-05-10T04:07:33;358.50;2329.60
70593;DHT22;58294;42.988;20.338;2023-05-10T04:09:58;358.50;2329.60
70593;DHT22;58294;42.988;20.338;2023-05-10T04:12:24;358.60;2329.60
70593;DHT22;58294;42.988;20.338;2023-05-10T04:14:50;358.60;2329.60
70593;DHT22;58294;42.988;20.338;2023-05-10T04:17:16;358.60;2329.60
70593;DHT22;58294;42.988;20.338;2023-05-10T04:19:42;358.60;2329.60
70593;DHT22;58294;42.988;20.338;2023-05-10T04:22:08;358.60;2329.60
70593;DHT22;58294;42.988;20.338;2023-05-10T04:24:33;358.60;2329.60
70593;DHT22;58294;42.988;20.338;2023-05-10T04:26:59;358.60;2329.60
70593;DHT22;58294;42.988;20.338;2023-05-10T04:29:26;358.60;2329.60
70593;DHT22;58294;42.988;20.338;2023-05-10T04:31:52;358.60;2329.60
70593;DHT22;58294;42.988;20.338;2023-05-10T04:34:20;358.60;2329.60
70593;DHT22;58294;42.988;20.338;2023-05-10T04:36:46;358.60;2329.60
70593;DHT22;58294;42.988;20.338;2023-05-10T04:39:12;358.60;2329.60
70593;DHT22;58294;42.988;20.338;2023-05-10T04:41:39;358.60;2329.60
70593;DHT22;58294;42.988;20.338;2023-05-10T04:44:05;358.70;2329.60
70593;DHT22;58294;42.988;20.338;2023-05-10T04:46:31;358.70;2329.60
70593;DHT22;58294;42.988;20.338;2023-05-10T04:48:57;358.60;2329.60
70593;DHT22;58294;42.988;20.338;2023-05-10T04:51:23;358.60;2329.60
70593;DHT22;58294;42.988;20.338;2023-05-10T04:53:49;358.60;2329.60
70593;DHT22;58294;42.988;20.338;2023-05-10T04:56:15;358.60;2329.60
70593;DHT22;58294;42.988;20.338;2023-05-10T04:58:41;358.50;2329.60
70593;DHT22;58294;42.988;20.338;2023-05-10T05:01:07;358.60;2329.60
70593;DHT22;58294;42.988;20.338;2023-05-10T05:03:33;358.60;2329.60
70593;DHT22;58294;42.988;20.338;2023-05-10T05:05:59;358.70;2329.60
70593;DHT22;58294;42.988;20.338;2023-05-10T05:08:25;358.80;2329.60
70593;DHT22;58294;42.988;20.338;2023-05-10T05:10:51;358.80;2329.60
70593;DHT22;58294;42.988;20.338;2023-05-10T05:13:17;358.80;2329.60
70593;DHT22;58294;42.988;20.338;2023-05-10T05:15:43;358.80;2329.60
70593;DHT22;58294;42.988;20.338;2023-05-10T05:20:35;359.00;2329.60
70593;DHT22;58294;42.988;20.338;2023-05-10T05:23:01;358.90;2329.60
70593;DHT22;58294;42.988;20.338;2023-05-10T05:25:27;359.00;2329.60
70593;DHT22;58294;42.988;20.338;2023-05-10T05:27:53;359.00;2329.60
70593;DHT22;58294;42.988;20.338;2023-05-10T05:30:19;359.10;2329.60
70593;DHT22;58294;42.988;20.338;2023-05-10T05:32:45;359.10;2329.60
70593;DHT22;58294;42.988;20.338;2023-05-10T05:35:12;359.20;2329.60
70593;DHT22;58294;42.988;20.338;2023-05-10T05:37:38;359.10;2329.60
70593;DHT22;58294;42.988;20.338;2023-05-10T05:40:05;359.10;2329.60
70593;DHT22;58294;42.988;20.338;2023-05-10T05:42:31;359.10;2329.60
70593;DHT22;58294;42.988;20.338;2023-05-10T05:44:57;359.20;2329.60
70593;DHT22;58294;42.988;20.338;2023-05-10T05:47:23;359.30;2329.60
70593;DHT22;58294;42.988;20.338;2023-05-10T05:49:48;359.30;2329.60
70593;DHT22;58294;42.988;20.338;2023-05-10T05:52:14;384.00;2329.60
70593;DHT22;58294;42.988;20.338;2023-05-10T05:54:40;384.10;2329.60
70593;DHT22;58294;42.988;20.338;2023-05-10T05:57:06;384.10;2329.60
70593;DHT22;58294;42.988;20.338;2023-05-10T05:59:32;384.10;2329.60
70593;DHT22;58294;42.988;20.338;2023-05-10T06:01:57;384.20;2329.60
70593;DHT22;58294;42.988;20.338;2023-05-10T06:04:24;384.40;2329.60
70593;DHT22;58294;42.988;20.338;2023-05-10T06:06:49;384.60;2329.60
70593;DHT22;58294;42.988;20.338;2023-05-10T06:09:15;384.50;2329.60
70593;DHT22;58294;42.988;20.338;2023-05-10T06:11:41;384.70;2329.60
70593;DHT22;58294;42.988;20.338;2023-05-10T06:14:07;384.70;2329.60
70593;DHT22;58294;42.988;20.338;2023-05-10T06:16:36;384.80;2329.60
70593;DHT22;58294;42.988;20.338;2023-05-10T06:19:02;384.90;2329.60
70593;DHT22;58294;42.988;20.338;2023-05-10T06:21:28;409.60;2355.20
70593;DHT22;58294;42.988;20.338;2023-05-10T06:23:54;409.60;2355.20
70593;DHT22;58294;42.988;20.338;2023-05-10T06:28:46;384.90;2329.60
70593;DHT22;58294;42.988;20.338;2023-05-10T06:31:12;409.60;2355.20
70593;DHT22;58294;42.988;20.338;2023-05-10T06:33:37;409.70;2355.20
70593;DHT22;58294;42.988;20.338;2023-05-10T06:36:03;409.80;2355.20
70593;DHT22;58294;42.988;20.338;2023-05-10T06:38:29;409.80;2355.20
70593;DHT22;58294;42.988;20.338;2023-05-10T06:40:55;409.90;2355.20
70593;DHT22;58294;42.988;20.338;2023-05-10T06:43:21;409.90;2355.20
70593;DHT22;58294;42.988;20.338;2023-05-10T06:45:48;410.00;2355.20
70593;DHT22;58294;42.988;20.338;2023-05-10T06:48:13;409.90;2355.20
70593;DHT22;58294;42.988;20.338;2023-05-10T06:50:39;410.00;2355.20
70593;DHT22;58294;42.988;20.338;2023-05-10T06:53:05;410.00;2355.20
70593;DHT22;58294;42.988;20.338;2023-05-10T06:55:31;410.10;2355.20
70593;DHT22;58294;42.988;20.338;2023-05-10T06:57:56;410.10;2355.20
70593;DHT22;58294;42.988;20.338;2023-05-10T07:00:22;410.20;2355.20
70593;DHT22;58294;42.988;20.338;2023-05-10T07:02:48;410.10;2355.20
70593;DHT22;58294;42.988;20.338;2023-05-10T07:05:14;410.10;2329.60
70593;DHT22;58294;42.988;20.338;2023-05-10T07:07:40;410.10;2355.20
70593;DHT22;58294;42.988;20.338;2023-05-10T07:10:06;410.10;2329.60
70593;DHT22;58294;42.988;20.338;2023-05-10T07:12:33;410.10;2329.60
70593;DHT22;58294;42.988;20.338;2023-05-10T07:14:59;410.10;2329.60
70593;DHT22;58294;42.988;20.338;2023-05-10T07:17:24;410.10;2355.20
70593;DHT22;58294;42.988;20.338;2023-05-10T07:19:50;410.20;2355.20
70593;DHT22;58294;42.988;20.338;2023-05-10T07:22:16;410.30;2355.20
70593;DHT22;58294;42.988;20.338;2023-05-10T07:24:42;410.40;2355.20
70593;DHT22;58294;42.988;20.338;2023-05-10T07:27:08;435.20;2355.20
70593;DHT22;58294;42.988;20.338;2023-05-10T07:29:35;435.30;2355.20
70593;DHT22;58294;42.988;20.338;2023-05-10T07:32:01;435.40;2355.20
70593;DHT22;58294;42.988;20.338;2023-05-10T07:34:26;435.70;2355.20
70593;DHT22;58294;42.988;20.338;2023-05-10T07:36:53;435.80;2355.20
70593;DHT22;58294;42.988;20.338;2023-05-10T07:39:19;435.80;2355.20
70593;DHT22;58294;42.988;20.338;2023-05-10T07:41:46;436.00;2329.60
70593;DHT22;58294;42.988;20.338;2023-05-10T07:44:12;436.00;2355.20
70593;DHT22;58294;42.988;20.338;2023-05-10T07:46:38;436.10;2329.60
70593;DHT22;58294;42.988;20.338;2023-05-10T07:49:04;436.10;2252.80
70593;DHT22;58294;42.988;20.338;2023-05-10T07:51:30;436.10;2278.40
70593;DHT22;58294;42.988;20.338;2023-05-10T07:53:55;436.10;2278.40
70593;DHT22;58294;42.988;20.338;2023-05-10T07:56:28;460.80;2278.40
70593;DHT22;58294;42.988;20.338;2023-05-10T07:59:00;436.10;2227.20
70593;DHT22;58294;42.988;20.338;2023-05-10T08:01:30;436.00;2201.60
70593;DHT22;58294;42.988;20.338;2023-05-10T08:03:57;436.00;2227.20
70593;DHT22;58294;42.988;20.338;2023-05-10T08:06:27;435.90;2176.00
70593;DHT22;58294;42.988;20.338;2023-05-10T08:08:53;435.80;2201.60
70593;DHT22;58294;42.988;20.338;2023-05-10T08:11:20;435.80;2176.00
70593;DHT22;58294;42.988;20.338;2023-05-10T08:13:49;435.80;2176.00
70593;DHT22;58294;42.988;20.338;2023-05-10T08:16:16;435.80;2150.40
70593;DHT22;58294;42.988;20.338;2023-05-10T08:18:44;435.80;2227.20
70593;DHT22;58294;42.988;20.338;2023-05-10T08:21:10;435.90;2252.80
70593;DHT22;58294;42.988;20.338;2023-05-10T08:23:37;436.00;2227.20
70593;DHT22;58294;42.988;20.338;2023-05-10T08:26:03;436.00;2278.40
70593;DHT22;58294;42.988;20.338;2023-05-10T08:28:28;436.00;2227.20
70593;DHT22;58294;42.988;20.338;2023-05-10T08:30:55;436.00;2201.60
70593;DHT22;58294;42.988;20.338;2023-05-10T08:33:21;436.00;2201.60
70593;DHT22;58294;42.988;20.338;2023-05-10T08:35:48;460.80;2329.60
70593;DHT22;58294;42.988;20.338;2023-05-10T08:38:14;460.90;2227.20
70593;DHT22;58294;42.988;20.338;2023-05-10T08:40:42;461.00;2227.20
70593;DHT22;58294;42.988;20.338;2023-05-10T08:43:12;461.10;2201.60
70593;DHT22;58294;42.988;20.338;2023-05-10T08:45:42;461.20;2252.80
70593;DHT22;58294;42.988;20.338;2023-05-10T08:48:11;461.30;2304.00
70593;DHT22;58294;42.988;20.338;2023-05-10T08:50:38;461.40;2278.40
70593;DHT22;58294;42.988;20.338;2023-05-10T08:53:10;461.60;2380.80
70593;DHT22;58294;42.988;20.338;2023-05-10T08:55:37;486.40;2278.40
70593;DHT22;58294;42.988;20.338;2023-05-10T08:58:07;486.40;2176.00
70593;DHT22;58294;42.988;20.338;2023-05-10T09:00:33;486.40;2201.60
70593;DHT22;58294;42.988;20.338;2023-05-10T09:03:00;486.40;2048.00
70593;DHT22;58294;42.988;20.338;2023-05-10T09:05:27;486.40;2099.20
70593;DHT22;58294;42.988;20.338;2023-05-10T09:07:53;486.50;2278.40
70593;DHT22;58294;42.988;20.338;2023-05-10T09:10:20;486.50;2227.20
70593;DHT22;58294;42.988;20.338;2023-05-10T09:12:47;486.50;2099.20
70593;DHT22;58294;42.988;20.338;2023-05-10T09:15:15;486.50;2048.00
70593;DHT22;58294;42.988;20.338;2023-05-10T09:17:42;486.50;2048.00
70593;DHT22;58294;42.988;20.338;2023-05-10T09:20:09;486.40;2124.80
70593;DHT22;58294;42.988;20.338;2023-05-10T09:22:35;461.70;2099.20
70593;DHT22;58294;42.988;20.338;2023-05-10T09:27:35;486.50;2099.20
70593;DHT22;58294;42.988;20.338;2023-05-10T09:30:02;486.40;2048.00
70593;DHT22;58294;42.988;20.338;2023-05-10T09:35:14;486.40;2073.60
70593;DHT22;58294;42.988;20.338;2023-05-10T09:37:41;486.40;2048.00
70593;DHT22;58294;42.988;20.338;2023-05-10T09:40:11;486.40;2099.20
70593;DHT22;58294;42.988;20.338;2023-05-10T09:42:38;486.50;2099.20
70593;DHT22;58294;42.988;20.338;2023-05-10T09:45:05;486.60;2099.20
70593;DHT22;58294;42.988;20.338;2023-05-10T09:47:35;486.80;2176.00
70593;DHT22;58294;42.988;20.338;2023-05-10T09:50:02;486.80;2176.00
70593;DHT22;58294;42.988;20.338;2023-05-10T09:52:52;486.80;2150.40
70593;DHT22;58294;42.988;20.338;2023-05-10T09:55:21;487.00;2099.20
70593;DHT22;58294;42.988;20.338;2023-05-10T09:57:48;487.10;2176.00
70593;DHT22;58294;42.988;20.338;2023-05-10T10:00:23;487.20;2099.20
70593;DHT22;58294;42.988;20.338;2023-05-10T10:02:57;487.30;2124.80
70593;DHT22;58294;42.988;20.338;2023-05-10T10:05:34;487.10;1945.60
70593;DHT22;58294;42.988;20.338;2023-05-10T10:08:03;486.90;2022.40
70593;DHT22;58294;42.988;20.338;2023-05-10T10:10:29;486.80;2022.40
70593;DHT22;58294;42.988;20.338;2023-05-10T10:12:56;486.90;2073.60
70593;DHT22;58294;42.988;20.338;2023-05-10T10:15:23;486.90;2022.40
70593;DHT22;58294;42.988;20.338;2023-05-10T10:17:50;487.00;2022.40
70593;DHT22;58294;42.988;20.338;2023-05-10T10:20:17;487.20;2099.20
70593;DHT22;58294;42.988;20.338;2023-05-10T10:22:43;487.30;2099.20
70593;DHT22;58294;42.988;20.338;2023-05-10T10:25:11;487.10;1920.00
70593;DHT22;58294;42.988;20.338;2023-05-10T10:30:43;487.00;1894.40
70593;DHT22;58294;42.988;20.338;2023-05-10T10:35:58;486.70;1894.40
70593;DHT22;58294;42.988;20.338;2023-05-10T10:38:24;486.70;1996.80
70593;DHT22;58294;42.988;20.338;2023-05-10T10:41:11;486.70;1945.60
70593;DHT22;58294;42.988;20.338;2023-05-10T11:00:26;512.20;2073.60
70593;DHT22;58294;42.988;20.338;2023-05-10T11:03:08;537.60;2406.40
70593;DHT22;58294;42.988;20.338;2023-05-10T11:05:46;537.60;2406.40
70593;DHT22;58294;42.988;20.338;2023-05-10T11:10:52;537.90;1868.80
70593;DHT22;58294;42.988;20.338;2023-05-10T11:13:40;537.70;1868.80
70593;DHT22;58294;42.988;20.338;2023-05-10T11:16:11;537.80;1894.40
70593;DHT22;58294;42.988;20.338;2023-05-10T11:18:37;537.70;1920.00
70593;DHT22;58294;42.988;20.338;2023-05-10T11:21:03;537.70;1920.00
70593;DHT22;58294;42.988;20.338;2023-05-10T11:23:51;537.60;1868.80
70593;DHT22;58294;42.988;20.338;2023-05-10T11:26:18;537.60;1817.60
70593;DHT22;58294;42.988;20.338;2023-05-10T11:28:46;537.60;1843.20
70593;DHT22;58294;42.988;20.338;2023-05-10T11:31:16;537.70;2227.20
70593;DHT22;58294;42.988;20.338;2023-05-10T11:33:45;563.20;2432.00
70593;DHT22;58294;42.988;20.338;2023-05-10T11:36:16;563.50;1817.60
70593;DHT22;58294;42.988;20.338;2023-05-10T11:38:43;563.40;1920.00
70593;DHT22;58294;42.988;20.338;2023-05-10T11:41:09;563.50;1817.60
70593;DHT22;58294;42.988;20.338;2023-05-10T11:48:34;588.80;1689.60
70593;DHT22;58294;42.988;20.338;2023-05-10T11:51:01;563.90;1612.80
70593;DHT22;58294;42.988;20.338;2023-05-10T11:53:31;563.60;1638.40
70593;DHT22;58294;42.988;20.338;2023-05-10T11:56:10;563.20;1587.20
70593;DHT22;58294;42.988;20.338;2023-05-10T11:58:38;538.40;1638.40
70593;DHT22;58294;42.988;20.338;2023-05-10T12:01:06;538.40;2048.00
70593;DHT22;58294;42.988;20.338;2023-05-10T12:03:33;563.60;2432.00
70593;DHT22;58294;42.988;20.338;2023-05-10T12:05:59;563.70;1792.00
70593;DHT22;58294;42.988;20.338;2023-05-10T12:08:28;563.50;1689.60
70593;DHT22;58294;42.988;20.338;2023-05-10T12:11:05;563.30;1664.00
70593;DHT22;58294;42.988;20.338;2023-05-10T12:13:38;563.20;1664.00
70593;DHT22;58294;42.988;20.338;2023-05-10T12:18:54;538.00;1612.80
70593;DHT22;58294;42.988;20.338;2023-05-10T12:21:21;537.70;1638.40
70593;DHT22;58294;42.988;20.338;2023-05-10T12:23:50;537.60;1689.60
70593;DHT22;58294;42.988;20.338;2023-05-10T12:26:16;512.80;1638.40
70593;DHT22;58294;42.988;20.338;2023-05-10T12:28:42;512.70;1664.00
70593;DHT22;58294;42.988;20.338;2023-05-10T12:31:09;512.70;1689.60
70593;DHT22;58294;42.988;20.338;2023-05-10T12:33:38;512.60;1664.00
70593;DHT22;58294;42.988;20.338;2023-05-10T12:36:05;512.50;1664.00
70593;DHT22;58294;42.988;20.338;2023-05-10T12:38:34;512.50;1689.60
70593;DHT22;58294;42.988;20.338;2023-05-10T12:41:02;512.50;1689.60
70593;DHT22;58294;42.988;20.338;2023-05-10T12:43:29;512.30;1664.00
70593;DHT22;58294;42.988;20.338;2023-05-10T12:45:55;512.00;1638.40
70593;DHT22;58294;42.988;20.338;2023-05-10T12:48:21;512.00;1689.60
70593;DHT22;58294;42.988;20.338;2023-05-10T12:50:47;512.00;1689.60
70593;DHT22;58294;42.988;20.338;2023-05-10T12:53:14;512.00;1689.60
70593;DHT22;58294;42.988;20.338;2023-05-10T12:55:44;487.30;1689.60
70593;DHT22;58294;42.988;20.338;2023-05-10T12:58:10;487.30;1715.20
70593;DHT22;58294;42.988;20.338;2023-05-10T13:00:36;487.30;1740.80
70593;DHT22;58294;42.988;20.338;2023-05-10T13:03:04;487.20;1689.60
70593;DHT22;58294;42.988;20.338;2023-05-10T13:05:34;487.10;1689.60
70593;DHT22;58294;42.988;20.338;2023-05-10T13:08:00;487.00;1715.20
70593;DHT22;58294;42.988;20.338;2023-05-10T13:10:26;486.90;1715.20
70593;DHT22;58294;42.988;20.338;2023-05-10T13:12:51;486.80;1766.40
70593;DHT22;58294;42.988;20.338;2023-05-10T13:15:17;486.80;1740.80
70593;DHT22;58294;42.988;20.338;2023-05-10T13:17:43;486.80;1740.80
70593;DHT22;58294;42.988;20.338;2023-05-10T13:20:11;486.80;1740.80
70593;DHT22;58294;42.988;20.338;2023-05-10T13:22:36;486.60;1766.40
70593;DHT22;58294;42.988;20.338;2023-05-10T13:25:03;486.50;1740.80
70593;DHT22;58294;42.988;20.338;2023-05-10T13:27:28;486.40;1766.40
70593;DHT22;58294;42.988;20.338;2023-05-10T13:29:54;461.50;1766.40
70593;DHT22;58294;42.988;20.338;2023-05-10T13:32:20;461.40;1792.00
70593;DHT22;58294;42.988;20.338;2023-05-10T13:34:46;461.40;1843.20
70593;DHT22;58294;42.988;20.338;2023-05-10T13:37:13;461.30;1817.60
70593;DHT22;58294;42.988;20.338;2023-05-10T13:39:39;461.20;1843.20
70593;DHT22;58294;42.988;20.338;2023-05-10T13:42:04;461.20;1843.20
70593;DHT22;58294;42.988;20.338;2023-05-10T13:44:31;461.20;1843.20
70593;DHT22;58294;42.988;20.338;2023-05-10T13:46:58;461.20;1868.80
70593;DHT22;58294;42.988;20.338;2023-05-10T13:49:24;461.20;1868.80
70593;DHT22;58294;42.988;20.338;2023-05-10T13:51:50;461.20;1868.80
70593;DHT22;58294;42.988;20.338;2023-05-10T13:54:17;461.10;1868.80
70593;DHT22;58294;42.988;20.338;2023-05-10T13:56:45;461.10;1894.40
70593;DHT22;58294;42.988;20.338;2023-05-10T13:59:13;461.00;1868.80
70593;DHT22;58294;42.988;20.338;2023-05-10T14:01:42;461.00;1894.40
70593;DHT22;58294;42.988;20.338;2023-05-10T14:04:09;460.90;1920.00
70593;DHT22;58294;42.988;20.338;2023-05-10T14:06:38;460.90;1945.60
70593;DHT22;58294;42.988;20.338;2023-05-10T14:09:04;460.80;1920.00
70593;DHT22;58294;42.988;20.338;2023-05-10T14:11:33;460.80;1971.20
70593;DHT22;58294;42.988;20.338;2023-05-10T14:13:58;460.80;1971.20
70593;DHT22;58294;42.988;20.338;2023-05-10T14:16:24;436.10;1945.60
70593;DHT22;58294;42.988;20.338;2023-05-10T14:18:50;436.00;1920.00
70593;DHT22;58294;42.988;20.338;2023-05-10T14:21:16;436.00;1971.20
70593;DHT22;58294;42.988;20.338;2023-05-10T14:23:42;435.80;1894.40
70593;DHT22;58294;42.988;20.338;2023-05-10T14:26:08;435.70;1945.60
70593;DHT22;58294;42.988;20.338;2023-05-10T14:28:34;435.70;1971.20
70593;DHT22;58294;42.988;20.338;2023-05-10T14:30:59;435.70;1996.80
70593;DHT22;58294;42.988;20.338;2023-05-10T14:33:25;435.70;2022.40
70593;DHT22;58294;42.988;20.338;2023-05-10T14:35:51;435.70;2022.40
70593;DHT22;58294;42.988;20.338;2023-05-10T14:38:17;435.70;2048.00
70593;DHT22;58294;42.988;20.338;2023-05-10T14:40:43;435.70;2048.00
70593;DHT22;58294;42.988;20.338;2023-05-10T14:43:09;435.70;2073.60
70593;DHT22;58294;42.988;20.338;2023-05-10T14:45:35;435.70;2099.20
70593;DHT22;58294;42.988;20.338;2023-05-10T14:48:01;435.80;2099.20
70593;DHT22;58294;42.988;20.338;2023-05-10T14:50:30;435.90;2099.20
70593;DHT22;58294;42.988;20.338;2023-05-10T14:52:57;436.00;2099.20
70593;DHT22;58294;42.988;20.338;2023-05-10T14:55:23;436.00;2073.60
70593;DHT22;58294;42.988;20.338;2023-05-10T14:57:49;436.10;2099.20
70593;DHT22;58294;42.988;20.338;2023-05-10T15:00:16;436.10;2073.60
70593;DHT22;58294;42.988;20.338;2023-05-10T15:02:42;436.10;2099.20
70593;DHT22;58294;42.988;20.338;2023-05-10T15:05:08;460.80;2099.20
70593;DHT22;58294;42.988;20.338;2023-05-10T15:07:34;460.80;2099.20
70593;DHT22;58294;42.988;20.338;2023-05-10T15:10:00;460.80;2124.80
70593;DHT22;58294;42.988;20.338;2023-05-10T15:12:26;460.90;2150.40
70593;DHT22;58294;42.988;20.338;2023-05-10T15:14:52;461.00;2124.80
70593;DHT22;58294;42.988;20.338;2023-05-10T15:17:17;461.10;2124.80
70593;DHT22;58294;42.988;20.338;2023-05-10T15:19:43;461.20;2099.20
70593;DHT22;58294;42.988;20.338;2023-05-10T15:22:10;461.20;2073.60
70593;DHT22;58294;42.988;20.338;2023-05-10T15:24:36;461.20;2099.20
70593;DHT22;58294;42.988;20.338;2023-05-10T15:27:01;461.20;2048.00
70593;DHT22;58294;42.988;20.338;2023-05-10T15:29:27;461.10;2048.00
70593;DHT22;58294;42.988;20.338;2023-05-10T15:31:53;461.10;2048.00
70593;DHT22;58294;42.988;20.338;2023-05-10T15:34:19;461.00;2048.00
70593;DHT22;58294;42.988;20.338;2023-05-10T15:36:45;461.00;2048.00